sensor_id;sensor_type;location;lat;lon;timestamp;P1;durP1;ratioP1;P2;durP2;ratioP2
71490;SDS011;59307;50.060;9.150;2023-04-26T00:01:35;5.03;;;2.40;;
71490;SDS011;59307;50.060;9.150;2023-04-26T00:04:00;5.93;;;2.40;;
71490;SDS011;59307;50.060;9.150;2023-04-26T00:06:26;5.32;;;2.40;;
71490;SDS011;59307;50.060;9.150;2023-04-26T00:08:51;5.87;;;2.70;;
71490;SDS011;59307;50.060;9.150;2023-04-26T00:11:17;5.10;;;2.33;;
71490;SDS011;59307;50.060;9.150;2023-04-26T00:13:42;5.70;;;2.67;;
71490;SDS011;59307;50.060;9.150;2023-04-26T00:16:07;6.13;;;2.90;;
71490;SDS011;59307;50.060;9.150;2023-04-26T00:18:32;9.27;;;2.83;;
71490;SDS011;59307;50.060;9.150;2023-04-26T00:20:58;5.35;;;2.55;;
71490;SDS011;59307;50.060;9.150;2023-04-26T00:23:23;5.27;;;2.90;;
71490;SDS011;59307;50.060;9.150;2023-04-26T00:25:48;7.67;;;2.60;;
71490;SDS011;59307;50.060;9.150;2023-04-26T00:28:14;6.23;;;2.47;;
71490;SDS011;59307;50.060;9.150;2023-04-26T00:30:39;7.10;;;2.63;;
71490;SDS011;59307;50.060;9.150;2023-04-26T00:33:11;5.43;;;2.73;;
71490;SDS011;59307;50.060;9.150;2023-04-26T00:35:36;5.73;;;2.73;;
71490;SDS011;59307;50.060;9.150;2023-04-26T00:38:02;7.35;;;3.28;;
71490;SDS011;59307;50.060;9.150;2023-04-26T00:40:27;8.23;;;2.90;;
71490;SDS011;59307;50.060;9.150;2023-04-26T00:42:55;4.13;;;2.50;;
71490;SDS011;59307;50.060;9.150;2023-04-26T00:45:21;5.78;;;2.95;;
71490;SDS011;59307;50.060;9.150;2023-04-26T00:47:46;8.67;;;2.93;;
71490;SDS011;59307;50.060;9.150;2023-04-26T00:50:11;9.03;;;3.60;;
71490;SDS011;59307;50.060;9.150;2023-04-26T00:52:36;8.90;;;3.50;;
71490;SDS011;59307;50.060;9.150;2023-04-26T00:55:02;7.17;;;3.20;;
71490;SDS011;59307;50.060;9.150;2023-04-26T00:57:27;5.97;;;2.90;;
71490;SDS011;59307;50.060;9.150;2023-04-26T00:59:53;7.60;;;3.17;;
71490;SDS011;59307;50.060;9.150;2023-04-26T01:02:18;10.40;;;3.53;;
71490;SDS011;59307;50.060;9.150;2023-04-26T01:04:43;6.20;;;3.10;;
71490;SDS011;59307;50.060;9.150;2023-04-26T01:07:09;8.90;;;3.17;;
71490;SDS011;59307;50.060;9.150;2023-04-26T01:09:35;6.90;;;3.30;;
71490;SDS011;59307;50.060;9.150;2023-04-26T01:12:01;5.87;;;3.20;;
71490;SDS011;59307;50.060;9.150;2023-04-26T01:14:26;6.13;;;3.40;;
71490;SDS011;59307;50.060;9.150;2023-04-26T01:16:52;11.02;;;3.60;;
71490;SDS011;59307;50.060;9.150;2023-04-26T01:19:17;8.77;;;3.77;;
71490;SDS011;59307;50.060;9.150;2023-04-26T01:21:42;8.63;;;3.17;;
71490;SDS011;59307;50.060;9.150;2023-04-26T01:24:11;9.07;;;3.40;;
71490;SDS011;59307;50.060;9.150;2023-04-26T01:26:37;5.30;;;2.85;;
71490;SDS011;59307;50.060;9.150;2023-04-26T01:29:14;6.55;;;3.10;;
71490;SDS011;59307;50.060;9.150;2023-04-26T01:31:40;5.43;;;2.57;;
71490;SDS011;59307;50.060;9.150;2023-04-26T01:34:05;6.47;;;3.20;;
71490;SDS011;59307;50.060;9.150;2023-04-26T01:36:31;6.27;;;2.97;;
71490;SDS011;59307;50.060;9.150;2023-04-26T01:38:56;8.13;;;3.43;;
71490;SDS011;59307;50.060;9.150;2023-04-26T01:41:21;6.50;;;3.27;;
71490;SDS011;59307;50.060;9.150;2023-04-26T01:43:46;7.53;;;3.33;;
71490;SDS011;59307;50.060;9.150;2023-04-26T01:46:12;11.47;;;3.70;;
71490;SDS011;59307;50.060;9.150;2023-04-26T01:48:37;4.90;;;2.90;;
71490;SDS011;59307;50.060;9.150;2023-04-26T01:51:02;8.93;;;3.03;;
71490;SDS011;59307;50.060;9.150;2023-04-26T01:53:27;7.10;;;2.77;;
71490;SDS011;59307;50.060;9.150;2023-04-26T01:55:52;7.10;;;2.77;;
71490;SDS011;59307;50.060;9.150;2023-04-26T01:58:19;7.88;;;3.20;;
71490;SDS011;59307;50.060;9.150;2023-04-26T02:00:44;7.83;;;3.07;;
71490;SDS011;59307;50.060;9.150;2023-04-26T02:03:10;6.57;;;3.00;;
71490;SDS011;59307;50.060;9.150;2023-04-26T02:05:35;7.93;;;2.97;;
71490;SDS011;59307;50.060;9.150;2023-04-26T02:08:01;7.30;;;3.00;;
71490;SDS011;59307;50.060;9.150;2023-04-26T02:10:26;8.90;;;3.30;;
71490;SDS011;59307;50.060;9.150;2023-04-26T02:12:51;7.97;;;2.90;;
71490;SDS011;59307;50.060;9.150;2023-04-26T02:15:16;7.80;;;3.20;;
71490;SDS011;59307;50.060;9.150;2023-04-26T02:17:41;10.33;;;3.13;;
71490;SDS011;59307;50.060;9.150;2023-04-26T02:20:07;5.77;;;2.93;;
71490;SDS011;59307;50.060;9.150;2023-04-26T02:22:35;9.05;;;3.08;;
71490;SDS011;59307;50.060;9.150;2023-04-26T02:25:00;8.60;;;2.93;;
71490;SDS011;59307;50.060;9.150;2023-04-26T02:27:26;5.73;;;2.87;;
71490;SDS011;59307;50.060;9.150;2023-04-26T02:29:51;6.13;;;2.57;;
71490;SDS011;59307;50.060;9.150;2023-04-26T02:32:17;7.53;;;3.00;;
71490;SDS011;59307;50.060;9.150;2023-04-26T02:34:42;11.90;;;4.00;;
71490;SDS011;59307;50.060;9.150;2023-04-26T02:37:08;6.03;;;3.00;;
71490;SDS011;59307;50.060;9.150;2023-04-26T02:39:33;5.50;;;2.97;;
71490;SDS011;59307;50.060;9.150;2023-04-26T02:41:58;7.63;;;2.70;;
71490;SDS011;59307;50.060;9.150;2023-04-26T02:44:24;6.55;;;3.00;;
71490;SDS011;59307;50.060;9.150;2023-04-26T02:46:49;8.03;;;3.07;;
71490;SDS011;59307;50.060;9.150;2023-04-26T02:49:14;8.77;;;3.40;;
71490;SDS011;59307;50.060;9.150;2023-04-26T02:51:40;8.70;;;3.40;;
71490;SDS011;59307;50.060;9.150;2023-04-26T02:54:05;8.47;;;3.30;;
71490;SDS011;59307;50.060;9.150;2023-04-26T02:56:31;6.80;;;3.30;;
71490;SDS011;59307;50.060;9.150;2023-04-26T02:58:56;9.03;;;3.40;;
71490;SDS011;59307;50.060;9.150;2023-04-26T03:01:21;9.23;;;3.43;;
71490;SDS011;59307;50.060;9.150;2023-04-26T03:03:46;6.47;;;3.10;;
71490;SDS011;59307;50.060;9.150;2023-04-26T03:06:12;8.50;;;3.10;;
71490;SDS011;59307;50.060;9.150;2023-04-26T03:08:37;6.90;;;3.20;;
71490;SDS011;59307;50.060;9.150;2023-04-26T03:11:02;8.30;;;3.07;;
71490;SDS011;59307;50.060;9.150;2023-04-26T03:13:27;6.53;;;2.77;;
71490;SDS011;59307;50.060;9.150;2023-04-26T03:15:52;7.50;;;2.60;;
71490;SDS011;59307;50.060;9.150;2023-04-26T03:18:18;8.03;;;3.00;;
71490;SDS011;59307;50.060;9.150;2023-04-26T03:20:43;8.17;;;2.90;;
71490;SDS011;59307;50.060;9.150;2023-04-26T03:23:08;8.90;;;3.20;;
71490;SDS011;59307;50.060;9.150;2023-04-26T03:25:33;10.53;;;3.90;;
71490;SDS011;59307;50.060;9.150;2023-04-26T03:27:58;10.27;;;3.40;;
71490;SDS011;59307;50.060;9.150;2023-04-26T03:30:23;7.73;;;3.30;;
71490;SDS011;59307;50.060;9.150;2023-04-26T03:32:49;6.97;;;3.27;;
71490;SDS011;59307;50.060;9.150;2023-04-26T03:35:14;7.60;;;3.13;;
71490;SDS011;59307;50.060;9.150;2023-04-26T03:37:39;8.90;;;3.17;;
71490;SDS011;59307;50.060;9.150;2023-04-26T03:40:08;6.33;;;3.03;;
71490;SDS011;59307;50.060;9.150;2023-04-26T03:42:33;8.07;;;3.03;;
71490;SDS011;59307;50.060;9.150;2023-04-26T03:44:59;5.90;;;3.33;;
71490;SDS011;59307;50.060;9.150;2023-04-26T03:47:24;6.80;;;3.27;;
71490;SDS011;59307;50.060;9.150;2023-04-26T03:49:49;5.90;;;2.75;;
71490;SDS011;59307;50.060;9.150;2023-04-26T03:52:14;8.57;;;3.07;;
71490;SDS011;59307;50.060;9.150;2023-04-26T03:54:40;6.90;;;3.30;;
71490;SDS011;59307;50.060;9.150;2023-04-26T03:57:05;6.70;;;3.87;;
71490;SDS011;59307;50.060;9.150;2023-04-26T03:59:31;8.37;;;3.70;;
71490;SDS011;59307;50.060;9.150;2023-04-26T04:01:56;13.32;;;3.95;;
71490;SDS011;59307;50.060;9.150;2023-04-26T04:04:22;6.27;;;3.30;;
71490;SDS011;59307;50.060;9.150;2023-04-26T04:06:47;8.80;;;3.73;;
71490;SDS011;59307;50.060;9.150;2023-04-26T04:09:12;6.10;;;3.20;;
71490;SDS011;59307;50.060;9.150;2023-04-26T04:11:37;7.80;;;3.27;;
71490;SDS011;59307;50.060;9.150;2023-04-26T04:14:02;7.47;;;3.40;;
71490;SDS011;59307;50.060;9.150;2023-04-26T04:16:28;6.87;;;3.30;;
71490;SDS011;59307;50.060;9.150;2023-04-26T04:18:53;7.43;;;3.50;;
71490;SDS011;59307;50.060;9.150;2023-04-26T04:21:18;11.13;;;3.93;;
71490;SDS011;59307;50.060;9.150;2023-04-26T04:23:43;7.53;;;3.73;;
71490;SDS011;59307;50.060;9.150;2023-04-26T04:26:08;6.90;;;3.20;;
71490;SDS011;59307;50.060;9.150;2023-04-26T04:28:36;7.82;;;3.38;;
71490;SDS011;59307;50.060;9.150;2023-04-26T04:31:02;7.43;;;3.20;;
71490;SDS011;59307;50.060;9.150;2023-04-26T04:33:27;7.20;;;3.43;;
71490;SDS011;59307;50.060;9.150;2023-04-26T04:35:52;8.57;;;3.60;;
71490;SDS011;59307;50.060;9.150;2023-04-26T04:38:18;7.27;;;3.53;;
71490;SDS011;59307;50.060;9.150;2023-04-26T04:40:44;7.00;;;3.30;;
71490;SDS011;59307;50.060;9.150;2023-04-26T04:43:11;7.05;;;3.30;;
71490;SDS011;59307;50.060;9.150;2023-04-26T04:45:36;8.13;;;3.07;;
71490;SDS011;59307;50.060;9.150;2023-04-26T04:48:02;7.00;;;2.97;;
71490;SDS011;59307;50.060;9.150;2023-04-26T04:50:29;8.88;;;3.60;;
71490;SDS011;59307;50.060;9.150;2023-04-26T04:52:56;9.85;;;3.95;;
71490;SDS011;59307;50.060;9.150;2023-04-26T04:55:21;7.67;;;3.43;;
71490;SDS011;59307;50.060;9.150;2023-04-26T04:57:46;10.13;;;4.30;;
71490;SDS011;59307;50.060;9.150;2023-04-26T05:00:11;8.40;;;4.50;;
71490;SDS011;59307;50.060;9.150;2023-04-26T05:02:37;9.33;;;4.17;;
71490;SDS011;59307;50.060;9.150;2023-04-26T05:05:02;6.07;;;3.80;;
71490;SDS011;59307;50.060;9.150;2023-04-26T05:07:29;13.23;;;3.80;;
71490;SDS011;59307;50.060;9.150;2023-04-26T05:09:54;10.95;;;4.10;;
71490;SDS011;59307;50.060;9.150;2023-04-26T05:12:20;9.70;;;3.83;;
71490;SDS011;59307;50.060;9.150;2023-04-26T05:14:45;9.93;;;4.87;;
71490;SDS011;59307;50.060;9.150;2023-04-26T05:17:10;11.43;;;5.00;;
71490;SDS011;59307;50.060;9.150;2023-04-26T05:19:36;8.83;;;4.33;;
71490;SDS011;59307;50.060;9.150;2023-04-26T05:22:01;8.17;;;4.47;;
71490;SDS011;59307;50.060;9.150;2023-04-26T05:24:28;8.60;;;4.70;;
71490;SDS011;59307;50.060;9.150;2023-04-26T05:26:54;10.07;;;4.53;;
71490;SDS011;59307;50.060;9.150;2023-04-26T05:29:20;8.15;;;4.30;;
71490;SDS011;59307;50.060;9.150;2023-04-26T05:31:45;9.60;;;4.80;;
71490;SDS011;59307;50.060;9.150;2023-04-26T05:34:11;8.50;;;4.00;;
71490;SDS011;59307;50.060;9.150;2023-04-26T05:36:36;11.93;;;4.50;;
71490;SDS011;59307;50.060;9.150;2023-04-26T05:39:01;7.47;;;4.27;;
71490;SDS011;59307;50.060;9.150;2023-04-26T05:41:26;5.30;;;3.30;;
71490;SDS011;59307;50.060;9.150;2023-04-26T05:43:51;11.80;;;3.90;;
71490;SDS011;59307;50.060;9.150;2023-04-26T05:46:16;6.57;;;3.13;;
71490;SDS011;59307;50.060;9.150;2023-04-26T05:48:42;7.37;;;3.70;;
71490;SDS011;59307;50.060;9.150;2023-04-26T05:51:07;6.90;;;3.60;;
71490;SDS011;59307;50.060;9.150;2023-04-26T05:53:32;8.00;;;3.25;;
71490;SDS011;59307;50.060;9.150;2023-04-26T05:55:57;7.97;;;3.50;;
71490;SDS011;59307;50.060;9.150;2023-04-26T05:58:23;6.53;;;3.37;;
71490;SDS011;59307;50.060;9.150;2023-04-26T06:00:48;8.13;;;3.27;;
71490;SDS011;59307;50.060;9.150;2023-04-26T06:03:13;10.57;;;3.30;;
71490;SDS011;59307;50.060;9.150;2023-04-26T06:05:38;5.37;;;3.00;;
71490;SDS011;59307;50.060;9.150;2023-04-26T06:08:03;7.10;;;2.97;;
71490;SDS011;59307;50.060;9.150;2023-04-26T06:10:29;8.33;;;3.30;;
71490;SDS011;59307;50.060;9.150;2023-04-26T06:12:54;7.67;;;3.00;;
71490;SDS011;59307;50.060;9.150;2023-04-26T06:15:19;5.40;;;2.80;;
71490;SDS011;59307;50.060;9.150;2023-04-26T06:17:45;7.23;;;3.20;;
71490;SDS011;59307;50.060;9.150;2023-04-26T06:20:10;5.57;;;2.43;;
71490;SDS011;59307;50.060;9.150;2023-04-26T06:22:35;5.73;;;2.67;;
71490;SDS011;59307;50.060;9.150;2023-04-26T06:25:01;5.47;;;2.55;;
71490;SDS011;59307;50.060;9.150;2023-04-26T06:27:28;5.30;;;2.43;;
71490;SDS011;59307;50.060;9.150;2023-04-26T06:29:53;4.30;;;2.33;;
71490;SDS011;59307;50.060;9.150;2023-04-26T06:32:18;5.37;;;2.10;;
71490;SDS011;59307;50.060;9.150;2023-04-26T06:34:44;5.40;;;2.30;;
71490;SDS011;59307;50.060;9.150;2023-04-26T06:37:10;4.97;;;2.72;;
71490;SDS011;59307;50.060;9.150;2023-04-26T06:39:35;6.67;;;2.70;;
71490;SDS011;59307;50.060;9.150;2023-04-26T06:42:02;5.85;;;2.47;;
71490;SDS011;59307;50.060;9.150;2023-04-26T06:44:27;5.20;;;2.50;;
71490;SDS011;59307;50.060;9.150;2023-04-26T06:46:53;5.85;;;2.33;;
71490;SDS011;59307;50.060;9.150;2023-04-26T06:49:19;8.13;;;2.97;;
71490;SDS011;59307;50.060;9.150;2023-04-26T06:51:44;10.93;;;4.20;;
71490;SDS011;59307;50.060;9.150;2023-04-26T06:54:10;5.83;;;3.10;;
71490;SDS011;59307;50.060;9.150;2023-04-26T06:56:36;8.73;;;3.28;;
71490;SDS011;59307;50.060;9.150;2023-04-26T06:59:02;6.70;;;2.60;;
71490;SDS011;59307;50.060;9.150;2023-04-26T07:01:28;11.65;;;2.50;;
71490;SDS011;59307;50.060;9.150;2023-04-26T07:03:56;7.33;;;2.70;;
71490;SDS011;59307;50.060;9.150;2023-04-26T07:06:21;5.90;;;2.63;;
71490;SDS011;59307;50.060;9.150;2023-04-26T07:08:46;6.97;;;2.43;;
71490;SDS011;59307;50.060;9.150;2023-04-26T07:11:12;8.10;;;2.77;;
71490;SDS011;59307;50.060;9.150;2023-04-26T07:13:37;7.18;;;2.35;;
71490;SDS011;59307;50.060;9.150;2023-04-26T07:16:02;10.03;;;2.73;;
71490;SDS011;59307;50.060;9.150;2023-04-26T07:18:27;6.80;;;2.50;;
71490;SDS011;59307;50.060;9.150;2023-04-26T07:20:52;8.30;;;2.50;;
71490;SDS011;59307;50.060;9.150;2023-04-26T07:23:18;9.03;;;2.70;;
71490;SDS011;59307;50.060;9.150;2023-04-26T07:25:43;5.17;;;2.30;;
71490;SDS011;59307;50.060;9.150;2023-04-26T07:28:08;3.90;;;2.17;;
71490;SDS011;59307;50.060;9.150;2023-04-26T07:30:33;8.67;;;2.53;;
71490;SDS011;59307;50.060;9.150;2023-04-26T07:32:59;6.23;;;2.30;;
71490;SDS011;59307;50.060;9.150;2023-04-26T07:35:24;7.10;;;2.33;;
71490;SDS011;59307;50.060;9.150;2023-04-26T07:37:49;8.40;;;2.40;;
71490;SDS011;59307;50.060;9.150;2023-04-26T07:40:15;6.63;;;2.60;;
71490;SDS011;59307;50.060;9.150;2023-04-26T07:42:40;9.10;;;2.70;;
71490;SDS011;59307;50.060;9.150;2023-04-26T07:45:05;5.77;;;2.43;;
71490;SDS011;59307;50.060;9.150;2023-04-26T07:47:31;4.60;;;2.33;;
71490;SDS011;59307;50.060;9.150;2023-04-26T07:49:56;8.10;;;2.20;;
71490;SDS011;59307;50.060;9.150;2023-04-26T07:52:21;7.10;;;2.47;;
71490;SDS011;59307;50.060;9.150;2023-04-26T07:54:46;7.37;;;2.63;;
71490;SDS011;59307;50.060;9.150;2023-04-26T07:57:11;6.77;;;2.57;;
71490;SDS011;59307;50.060;9.150;2023-04-26T07:59:37;11.00;;;3.17;;
71490;SDS011;59307;50.060;9.150;2023-04-26T08:02:02;6.93;;;2.33;;
71490;SDS011;59307;50.060;9.150;2023-04-26T08:04:31;7.10;;;3.10;;
71490;SDS011;59307;50.060;9.150;2023-04-26T08:06:57;6.63;;;2.75;;
71490;SDS011;59307;50.060;9.150;2023-04-26T08:09:22;8.47;;;3.33;;
71490;SDS011;59307;50.060;9.150;2023-04-26T08:11:47;7.37;;;2.70;;
71490;SDS011;59307;50.060;9.150;2023-04-26T08:14:13;8.60;;;2.77;;
71490;SDS011;59307;50.060;9.150;2023-04-26T08:16:38;5.67;;;2.63;;
71490;SDS011;59307;50.060;9.150;2023-04-26T08:19:03;12.33;;;3.10;;
71490;SDS011;59307;50.060;9.150;2023-04-26T08:21:28;5.43;;;2.40;;
71490;SDS011;59307;50.060;9.150;2023-04-26T08:23:53;10.10;;;3.13;;
71490;SDS011;59307;50.060;9.150;2023-04-26T08:26:18;9.43;;;2.70;;
71490;SDS011;59307;50.060;9.150;2023-04-26T08:28:44;4.67;;;2.10;;
71490;SDS011;59307;50.060;9.150;2023-04-26T08:31:10;6.05;;;2.70;;
71490;SDS011;59307;50.060;9.150;2023-04-26T08:33:35;7.93;;;2.50;;
71490;SDS011;59307;50.060;9.150;2023-04-26T08:36:00;6.07;;;2.37;;
71490;SDS011;59307;50.060;9.150;2023-04-26T08:38:26;3.53;;;1.80;;
71490;SDS011;59307;50.060;9.150;2023-04-26T08:40:51;7.37;;;2.77;;
71490;SDS011;59307;50.060;9.150;2023-04-26T08:43:17;3.88;;;1.92;;
71490;SDS011;59307;50.060;9.150;2023-04-26T08:45:44;5.77;;;2.30;;
71490;SDS011;59307;50.060;9.150;2023-04-26T08:48:10;7.78;;;2.40;;
71490;SDS011;59307;50.060;9.150;2023-04-26T08:50:38;6.15;;;2.50;;
71490;SDS011;59307;50.060;9.150;2023-04-26T08:53:04;5.97;;;2.17;;
71490;SDS011;59307;50.060;9.150;2023-04-26T08:55:29;5.83;;;2.10;;
71490;SDS011;59307;50.060;9.150;2023-04-26T08:57:56;5.10;;;2.23;;
71490;SDS011;59307;50.060;9.150;2023-04-26T09:00:21;6.90;;;2.50;;
71490;SDS011;59307;50.060;9.150;2023-04-26T09:02:48;6.07;;;2.20;;
71490;SDS011;59307;50.060;9.150;2023-04-26T09:05:14;4.15;;;1.88;;
71490;SDS011;59307;50.060;9.150;2023-04-26T09:10:04;3.77;;;1.80;;
71490;SDS011;59307;50.060;9.150;2023-04-26T09:12:30;6.10;;;1.73;;
71490;SDS011;59307;50.060;9.150;2023-04-26T09:14:57;4.40;;;2.05;;
71490;SDS011;59307;50.060;9.150;2023-04-26T09:19:54;5.53;;;1.77;;
71490;SDS011;59307;50.060;9.150;2023-04-26T09:22:26;5.80;;;1.87;;
71490;SDS011;59307;50.060;9.150;2023-04-26T09:24:51;4.63;;;1.98;;
71490;SDS011;59307;50.060;9.150;2023-04-26T09:27:17;6.43;;;1.60;;
71490;SDS011;59307;50.060;9.150;2023-04-26T09:29:59;6.20;;;1.70;;
71490;SDS011;59307;50.060;9.150;2023-04-26T09:32:25;6.47;;;1.52;;
71490;SDS011;59307;50.060;9.150;2023-04-26T09:34:51;3.75;;;1.70;;
71490;SDS011;59307;50.060;9.150;2023-04-26T09:37:16;5.93;;;2.00;;
71490;SDS011;59307;50.060;9.150;2023-04-26T09:39:41;5.80;;;1.90;;
71490;SDS011;59307;50.060;9.150;2023-04-26T09:42:07;6.43;;;1.73;;
71490;SDS011;59307;50.060;9.150;2023-04-26T09:44:32;6.40;;;1.90;;
71490;SDS011;59307;50.060;9.150;2023-04-26T09:49:24;4.27;;;1.50;;
71490;SDS011;59307;50.060;9.150;2023-04-26T09:52:05;3.60;;;1.45;;
71490;SDS011;59307;50.060;9.150;2023-04-26T09:54:36;6.22;;;1.70;;
71490;SDS011;59307;50.060;9.150;2023-04-26T09:57:02;5.30;;;1.95;;
71490;SDS011;59307;50.060;9.150;2023-04-26T09:59:37;4.27;;;1.70;;
71490;SDS011;59307;50.060;9.150;2023-04-26T10:02:02;5.93;;;1.73;;
71490;SDS011;59307;50.060;9.150;2023-04-26T10:04:28;6.00;;;1.77;;
71490;SDS011;59307;50.060;9.150;2023-04-26T10:06:53;3.30;;;1.67;;
71490;SDS011;59307;50.060;9.150;2023-04-26T10:09:19;6.70;;;1.63;;
71490;SDS011;59307;50.060;9.150;2023-04-26T10:11:44;2.87;;;1.60;;
71490;SDS011;59307;50.060;9.150;2023-04-26T10:14:09;3.33;;;1.50;;
71490;SDS011;59307;50.060;9.150;2023-04-26T10:16:35;5.07;;;1.65;;
71490;SDS011;59307;50.060;9.150;2023-04-26T10:19:01;5.00;;;1.60;;
71490;SDS011;59307;50.060;9.150;2023-04-26T10:21:27;4.87;;;1.77;;
71490;SDS011;59307;50.060;9.150;2023-04-26T10:23:55;6.47;;;1.83;;
71490;SDS011;59307;50.060;9.150;2023-04-26T10:29:06;4.65;;;1.58;;
71490;SDS011;59307;50.060;9.150;2023-04-26T10:34:21;5.05;;;1.70;;
71490;SDS011;59307;50.060;9.150;2023-04-26T10:37:05;4.28;;;1.88;;
71490;SDS011;59307;50.060;9.150;2023-04-26T10:39:32;3.50;;;1.55;;
71490;SDS011;59307;50.060;9.150;2023-04-26T10:44:51;6.47;;;2.10;;
71490;SDS011;59307;50.060;9.150;2023-04-26T10:47:35;3.90;;;1.70;;
71490;SDS011;59307;50.060;9.150;2023-04-26T10:50:08;4.72;;;1.70;;
71490;SDS011;59307;50.060;9.150;2023-04-26T10:52:34;5.05;;;1.80;;
71490;SDS011;59307;50.060;9.150;2023-04-26T10:55:00;5.72;;;1.88;;
71490;SDS011;59307;50.060;9.150;2023-04-26T10:57:48;4.05;;;1.60;;
71490;SDS011;59307;50.060;9.150;2023-04-26T11:05:08;3.05;;;1.60;;
71490;SDS011;59307;50.060;9.150;2023-04-26T11:07:37;4.67;;;1.40;;
71490;SDS011;59307;50.060;9.150;2023-04-26T11:10:03;5.63;;;1.80;;
71490;SDS011;59307;50.060;9.150;2023-04-26T11:12:31;2.92;;;1.73;;
71490;SDS011;59307;50.060;9.150;2023-04-26T11:14:58;5.73;;;1.90;;
71490;SDS011;59307;50.060;9.150;2023-04-26T11:17:24;4.20;;;1.85;;
71490;SDS011;59307;50.060;9.150;2023-04-26T11:19:49;6.70;;;1.67;;
71490;SDS011;59307;50.060;9.150;2023-04-26T11:22:14;4.60;;;1.47;;
71490;SDS011;59307;50.060;9.150;2023-04-26T11:24:39;3.73;;;1.50;;
71490;SDS011;59307;50.060;9.150;2023-04-26T11:27:08;5.90;;;2.07;;
71490;SDS011;59307;50.060;9.150;2023-04-26T11:29:34;3.40;;;1.63;;
71490;SDS011;59307;50.060;9.150;2023-04-26T11:31:59;6.77;;;1.80;;
71490;SDS011;59307;50.060;9.150;2023-04-26T11:34:33;6.07;;;1.97;;
71490;SDS011;59307;50.060;9.150;2023-04-26T11:37:02;7.72;;;1.67;;
71490;SDS011;59307;50.060;9.150;2023-04-26T11:39:31;3.90;;;1.80;;
71490;SDS011;59307;50.060;9.150;2023-04-26T11:42:06;4.07;;;2.23;;
71490;SDS011;59307;50.060;9.150;2023-04-26T11:44:32;3.58;;;1.60;;
71490;SDS011;59307;50.060;9.150;2023-04-26T11:46:58;7.57;;;2.10;;
71490;SDS011;59307;50.060;9.150;2023-04-26T11:49:23;3.53;;;1.67;;
71490;SDS011;59307;50.060;9.150;2023-04-26T11:51:48;5.77;;;2.00;;
71490;SDS011;59307;50.060;9.150;2023-04-26T11:54:29;5.07;;;1.87;;
71490;SDS011;59307;50.060;9.150;2023-04-26T11:56:55;4.20;;;1.80;;
71490;SDS011;59307;50.060;9.150;2023-04-26T11:59:27;8.03;;;1.93;;
71490;SDS011;59307;50.060;9.150;2023-04-26T12:01:54;4.90;;;1.70;;
71490;SDS011;59307;50.060;9.150;2023-04-26T12:04:25;5.55;;;1.75;;
71490;SDS011;59307;50.060;9.150;2023-04-26T12:06:51;5.18;;;1.95;;
71490;SDS011;59307;50.060;9.150;2023-04-26T12:09:16;5.30;;;1.70;;
71490;SDS011;59307;50.060;9.150;2023-04-26T12:11:56;6.43;;;1.60;;
71490;SDS011;59307;50.060;9.150;2023-04-26T12:14:23;4.07;;;1.90;;
71490;SDS011;59307;50.060;9.150;2023-04-26T12:16:48;5.88;;;2.03;;
71490;SDS011;59307;50.060;9.150;2023-04-26T12:19:13;6.00;;;2.10;;
71490;SDS011;59307;50.060;9.150;2023-04-26T12:21:39;6.63;;;2.03;;
71490;SDS011;59307;50.060;9.150;2023-04-26T12:24:06;7.28;;;2.13;;
71490;SDS011;59307;50.060;9.150;2023-04-26T12:26:41;7.37;;;2.17;;
71490;SDS011;59307;50.060;9.150;2023-04-26T12:29:07;6.22;;;2.40;;
71490;SDS011;59307;50.060;9.150;2023-04-26T12:31:33;5.57;;;1.75;;
71490;SDS011;59307;50.060;9.150;2023-04-26T12:33:58;6.70;;;1.97;;
71490;SDS011;59307;50.060;9.150;2023-04-26T12:36:23;3.97;;;1.97;;
71490;SDS011;59307;50.060;9.150;2023-04-26T12:38:48;3.83;;;1.87;;
71490;SDS011;59307;50.060;9.150;2023-04-26T12:41:14;5.33;;;2.00;;
71490;SDS011;59307;50.060;9.150;2023-04-26T12:43:40;4.23;;;1.83;;
71490;SDS011;59307;50.060;9.150;2023-04-26T12:46:05;4.53;;;1.80;;
71490;SDS011;59307;50.060;9.150;2023-04-26T12:48:30;3.93;;;1.90;;
71490;SDS011;59307;50.060;9.150;2023-04-26T12:50:56;4.00;;;1.70;;
71490;SDS011;59307;50.060;9.150;2023-04-26T12:53:21;5.67;;;1.80;;
71490;SDS011;59307;50.060;9.150;2023-04-26T12:55:46;3.13;;;1.80;;
71490;SDS011;59307;50.060;9.150;2023-04-26T12:58:11;6.50;;;2.20;;
71490;SDS011;59307;50.060;9.150;2023-04-26T13:00:37;5.70;;;2.10;;
71490;SDS011;59307;50.060;9.150;2023-04-26T13:03:02;7.73;;;2.20;;
71490;SDS011;59307;50.060;9.150;2023-04-26T13:05:27;3.43;;;1.87;;
71490;SDS011;59307;50.060;9.150;2023-04-26T13:07:53;4.10;;;1.87;;
71490;SDS011;59307;50.060;9.150;2023-04-26T13:10:18;3.90;;;1.70;;
71490;SDS011;59307;50.060;9.150;2023-04-26T13:12:44;8.53;;;1.90;;
71490;SDS011;59307;50.060;9.150;2023-04-26T13:15:09;4.57;;;1.80;;
71490;SDS011;59307;50.060;9.150;2023-04-26T13:17:35;6.37;;;2.23;;
71490;SDS011;59307;50.060;9.150;2023-04-26T13:20:01;7.93;;;2.10;;
71490;SDS011;59307;50.060;9.150;2023-04-26T13:22:26;5.70;;;1.77;;
71490;SDS011;59307;50.060;9.150;2023-04-26T13:24:51;3.80;;;2.03;;
71490;SDS011;59307;50.060;9.150;2023-04-26T13:27:16;4.47;;;1.57;;
71490;SDS011;59307;50.060;9.150;2023-04-26T13:29:41;8.40;;;2.13;;
71490;SDS011;59307;50.060;9.150;2023-04-26T13:32:07;7.10;;;2.37;;
71490;SDS011;59307;50.060;9.150;2023-04-26T13:34:32;3.23;;;1.57;;
71490;SDS011;59307;50.060;9.150;2023-04-26T13:36:57;4.83;;;2.17;;
71490;SDS011;59307;50.060;9.150;2023-04-26T13:39:24;3.22;;;1.50;;
71490;SDS011;59307;50.060;9.150;2023-04-26T13:41:50;4.00;;;1.40;;
71490;SDS011;59307;50.060;9.150;2023-04-26T13:44:15;2.90;;;1.73;;
71490;SDS011;59307;50.060;9.150;2023-04-26T13:46:41;4.57;;;1.77;;
71490;SDS011;59307;50.060;9.150;2023-04-26T13:49:06;3.80;;;1.87;;
71490;SDS011;59307;50.060;9.150;2023-04-26T13:51:32;1.60;;;1.20;;
71490;SDS011;59307;50.060;9.150;2023-04-26T13:53:58;2.13;;;1.30;;
71490;SDS011;59307;50.060;9.150;2023-04-26T13:56:23;2.87;;;1.60;;
71490;SDS011;59307;50.060;9.150;2023-04-26T13:58:49;3.67;;;0.97;;
71490;SDS011;59307;50.060;9.150;2023-04-26T14:01:18;5.03;;;1.30;;
71490;SDS011;59307;50.060;9.150;2023-04-26T14:03:43;1.90;;;1.23;;
71490;SDS011;59307;50.060;9.150;2023-04-26T14:06:08;3.03;;;1.50;;
71490;SDS011;59307;50.060;9.150;2023-04-26T14:08:33;3.67;;;1.10;;
71490;SDS011;59307;50.060;9.150;2023-04-26T14:10:59;3.17;;;1.42;;
71490;SDS011;59307;50.060;9.150;2023-04-26T14:13:24;4.43;;;1.50;;
71490;SDS011;59307;50.060;9.150;2023-04-26T14:15:49;2.87;;;1.33;;
71490;SDS011;59307;50.060;9.150;2023-04-26T14:18:15;2.57;;;1.30;;
71490;SDS011;59307;50.060;9.150;2023-04-26T14:20:40;3.33;;;1.70;;
71490;SDS011;59307;50.060;9.150;2023-04-26T14:23:05;6.10;;;1.63;;
71490;SDS011;59307;50.060;9.150;2023-04-26T14:25:31;7.23;;;1.93;;
71490;SDS011;59307;50.060;9.150;2023-04-26T14:27:56;1.93;;;1.30;;
71490;SDS011;59307;50.060;9.150;2023-04-26T14:30:21;3.93;;;1.60;;
71490;SDS011;59307;50.060;9.150;2023-04-26T14:32:46;2.50;;;1.27;;
71490;SDS011;59307;50.060;9.150;2023-04-26T14:35:11;4.53;;;1.60;;
71490;SDS011;59307;50.060;9.150;2023-04-26T14:37:36;5.07;;;1.53;;
71490;SDS011;59307;50.060;9.150;2023-04-26T14:40:02;2.83;;;1.43;;
71490;SDS011;59307;50.060;9.150;2023-04-26T14:42:28;3.57;;;1.63;;
71490;SDS011;59307;50.060;9.150;2023-04-26T14:44:53;5.73;;;1.40;;
71490;SDS011;59307;50.060;9.150;2023-04-26T14:47:18;1.33;;;1.20;;
71490;SDS011;59307;50.060;9.150;2023-04-26T14:49:44;2.80;;;1.30;;
71490;SDS011;59307;50.060;9.150;2023-04-26T14:52:09;4.53;;;1.73;;
71490;SDS011;59307;50.060;9.150;2023-04-26T14:54:37;2.97;;;1.40;;
71490;SDS011;59307;50.060;9.150;2023-04-26T14:57:02;4.60;;;1.45;;
71490;SDS011;59307;50.060;9.150;2023-04-26T14:59:28;3.67;;;1.40;;
71490;SDS011;59307;50.060;9.150;2023-04-26T15:01:53;3.80;;;1.50;;